Time;durP1;ratioP1;P1;durP2;ratioP2;P2;SDS_P1;SDS_P2;PMS_P1;PMS_P2;Temp;Humidity;BMP_temperature;BMP_pressure;BME280_temperature;BME280_humidity;BME280_pressure;Samples;Min_cycle;Max_cycle;Signal;HPM_P1;HPM_P2
2023/08/10 00:04:54;;;;;;;0.00;0.00;;;;;;;22.05;100.00;102056.41;10469980;28;20056;-79
2023/08/10 00:09:55;;;;;;;0.00;0.00;;;;;;;22.08;100.00;102060.75;10453689;28;20045;-79
2023/08/10 00:14:57;;;;;;;0.20;0.15;;;;;;;21.96;100.00;102056.41;10456501;28;20404;-78
2023/08/10 00:19:59;;;;;;;0.00;0.00;;;;;;;21.95;100.00;102059.91;10469978;28;20052;-79
2023/08/10 00:25:00;;;;;;;0.40;0.10;;;;;;;21.92;100.00;102070.44;10423434;28;20484;-79
2023/08/10 00:30:02;;;;;;;0.00;0.00;;;;;;;21.82;100.00;102070.47;10461844;28;20045;-79
2023/08/10 00:35:04;;;;;;;0.00;0.00;;;;;;;21.79;100.00;102075.69;10471022;28;20041;-78
2023/08/10 00:40:10;;;;;;;0.10;0.00;;;;;;;21.66;100.00;102073.97;10424178;28;20504;-79
2023/08/10 00:45:12;;;;;;;0.55;0.17;;;;;;;21.65;100.00;102066.97;10443971;28;20043;-78
2023/08/10 00:50:13;;;;;;;0.00;0.00;;;;;;;21.77;100.00;102072.22;10448308;28;20048;-78
2023/08/10 00:55:15;;;;;;;0.00;0.00;;;;;;;22.06;100.00;102073.88;10451570;28;20053;-79
2023/08/10 01:00:17;;;;;;;0.00;0.00;;;;;;;22.15;100.00;102073.81;10445658;28;20521;-79
2023/08/10 01:05:19;;;;;;;0.00;0.00;;;;;;;22.30;100.00;102072.06;10493249;28;20041;-79
2023/08/10 01:10:24;;;;;;;1.55;0.55;;;;;;;22.34;100.00;102082.50;10439381;28;20053;-79
2023/08/10 01:15:43;;;;;;;0.00;0.00;;;;;;;22.57;100.00;102072.81;10479440;28;20045;-79
2023/08/10 01:20:47;;;;;;;;;;;;;;;22.04;100.00;102070.38;10437832;28;20060;-79
2023/08/10 01:25:50;;;;;;;0.43;0.43;;;;;;;22.11;100.00;102081.75;10464589;28;19922;-78
2023/08/10 01:30:52;;;;;;;0.00;0.00;;;;;;;21.98;100.00;102086.16;10448132;28;20049;-78
2023/08/10 01:35:53;;;;;;;0.00;0.00;;;;;;;21.33;100.00;102091.47;10441480;28;20048;-79
2023/08/10 01:40:55;;;;;;;0.00;0.00;;;;;;;21.45;100.00;102094.09;10437616;28;20063;-79
2023/08/10 01:45:59;;;;;;;0.00;0.00;;;;;;;22.19;100.00;102104.44;10443394;28;20057;-79
2023/08/10 01:51:06;;;;;;;0.00;0.00;;;;;;;21.22;100.00;102105.44;10461628;28;20065;-79
2023/08/10 01:56:09;;;;;;;0.20;0.10;;;;;;;21.96;100.00;102099.28;10423421;28;20045;-79
2023/08/10 02:01:10;;;;;;;0.00;0.00;;;;;;;21.85;100.00;102096.69;10461579;28;20052;-78
2023/08/10 02:06:12;;;;;;;0.03;0.03;;;;;;;21.78;100.00;102101.94;10452591;28;20494;-79
2023/08/10 02:11:16;;;;;;;1.17;0.13;;;;;;;22.38;100.00;102112.25;10448030;28;20045;-79
2023/08/10 02:16:18;;;;;;;0.03;0.03;;;;;;;21.81;100.00;102110.69;10449157;28;20041;-79
2023/08/10 02:21:23;;;;;;;0.00;0.00;;;;;;;21.52;100.00;102106.31;10467906;28;20080;-79
2023/08/10 02:26:25;;;;;;;0.10;0.00;;;;;;;21.25;100.00;102104.56;10482258;28;20385;-79
2023/08/10 02:31:27;;;;;;;0.10;0.10;;;;;;;22.44;100.00;102101.78;10443840;28;20455;-79
2023/08/10 02:36:29;;;;;;;0.10;0.00;;;;;;;22.49;100.00;102099.09;10465307;28;20045;-79
2023/08/10 02:41:31;;;;;;;0.00;0.00;;;;;;;21.89;100.00;102102.81;10478348;28;20056;-79
2023/08/10 02:46:33;;;;;;;0.50;0.13;;;;;;;21.89;100.00;102101.91;10472450;28;20409;-79
2023/08/10 02:51:35;;;;;;;0.00;0.00;;;;;;;22.33;100.00;102096.53;10459777;28;20044;-79
2023/08/10 02:56:36;;;;;;;0.00;0.00;;;;;;;22.08;100.00;102108.00;10472589;28;20534;-78
2023/08/10 03:01:38;;;;;;;0.00;0.00;;;;;;;22.45;100.00;102113.13;10463634;28;20044;-79
2023/08/10 03:06:40;;;;;;;0.10;0.10;;;;;;;22.31;100.00;102115.78;10483131;28;20503;-79
2023/08/10 03:11:42;;;;;;;0.00;0.00;;;;;;;22.36;100.00;102108.78;10431858;28;20053;-78
2023/08/10 03:16:44;;;;;;;0.10;0.10;;;;;;;21.77;100.00;102103.69;10447067;28;20048;-79
2023/08/10 03:21:46;;;;;;;0.00;0.00;;;;;;;22.39;100.00;102103.53;10449327;28;20080;-79
2023/08/10 03:26:48;;;;;;;0.00;0.00;;;;;;;22.64;100.00;102103.41;10464050;28;20407;-79
2023/08/10 03:31:52;;;;;;;0.10;0.10;;;;;;;22.28;100.00;102105.31;10470261;28;20045;-79
2023/08/10 03:36:54;;;;;;;0.40;0.20;;;;;;;22.62;100.00;102105.16;10467423;28;20083;-79
2023/08/10 03:41:56;;;;;;;0.00;0.00;;;;;;;22.70;100.00;102113.88;10440875;28;20650;-79
2023/08/10 03:46:58;;;;;;;0.05;0.00;;;;;;;22.41;100.00;102104.41;10440975;28;20492;-79
2023/08/10 03:52:02;;;;;;;0.00;0.00;;;;;;;21.79;100.00;102106.31;10451986;28;20047;-79
2023/08/10 03:57:04;;;;;;;0.08;0.08;;;;;;;21.98;100.00;102109.78;10441347;28;20049;-79
2023/08/10 04:02:06;;;;;;;0.00;0.00;;;;;;;22.00;100.00;102113.28;10479102;28;20060;-79
2023/08/10 04:07:09;;;;;;;0.20;0.03;;;;;;;22.07;100.00;102109.75;10449936;28;20086;-79
2023/08/10 04:12:11;;;;;;;0.00;0.00;;;;;;;21.68;100.00;102116.81;10450398;28;20091;-79
2023/08/10 04:17:13;;;;;;;0.65;0.10;;;;;;;21.71;100.00;102119.41;10462172;28;20049;-79
2023/08/10 04:22:15;;;;;;;0.00;0.00;;;;;;;21.81;100.00;102115.91;10423078;28;20051;-79
2023/08/10 04:27:17;;;;;;;0.10;0.10;;;;;;;21.85;100.00;102117.69;10464142;28;20499;-79
2023/08/10 04:32:19;;;;;;;0.20;0.10;;;;;;;21.46;100.00;102124.66;10428771;28;20052;-79
2023/08/10 04:37:21;;;;;;;0.00;0.00;;;;;;;21.26;100.00;102126.41;10439178;28;20522;-79
2023/08/10 04:42:22;;;;;;;0.40;0.32;;;;;;;21.56;100.00;102126.41;10438497;28;20790;-79
2023/08/10 04:47:24;;;;;;;0.25;0.00;;;;;;;22.24;100.00;102129.78;10456750;28;20044;-79
2023/08/10 04:52:26;;;;;;;0.20;0.00;;;;;;;21.80;100.00;102129.91;10450243;28;20076;-79
2023/08/10 04:57:27;;;;;;;0.32;0.17;;;;;;;21.51;100.00;102133.41;10453409;28;20068;-79
2023/08/10 05:02:29;;;;;;;0.00;0.00;;;;;;;21.43;100.00;102135.16;10433063;28;20495;-79
2023/08/10 05:07:31;;;;;;;0.00;0.00;;;;;;;21.17;100.00;102142.97;10452900;28;20454;-79
2023/08/10 05:12:39;;;;;;;0.10;0.10;;;;;;;21.52;100.00;102140.41;10434744;28;20492;-79
2023/08/10 05:17:41;;;;;;;0.28;0.17;;;;;;;21.22;100.00;102142.13;10488290;28;20040;-79
2023/08/10 05:22:43;;;;;;;0.10;0.10;;;;;;;21.39;100.00;102139.50;10427964;28;20041;-79
2023/08/10 05:27:45;;;;;;;0.05;0.00;;;;;;;21.99;100.00;102132.50;10437439;28;20041;-79
2023/08/10 05:32:46;;;;;;;0.20;0.20;;;;;;;21.62;100.00;102141.28;10470466;28;20064;-79
2023/08/10 05:37:48;;;;;;;0.00;0.00;;;;;;;22.02;100.00;102140.34;10453658;28;20045;-79
2023/08/10 05:42:49;;;;;;;0.00;0.00;;;;;;;21.52;100.00;102142.16;10436010;28;20052;-79
2023/08/10 05:47:51;;;;;;;0.28;0.10;;;;;;;21.95;100.00;102134.28;10436668;28;20044;-79
2023/08/10 05:52:53;;;;;;;0.40;0.22;;;;;;;22.34;100.00;102147.28;10435808;28;20053;-79
2023/08/10 05:57:56;;;;;;;0.28;0.17;;;;;;;22.24;100.00;102145.56;10452428;28;20060;-79
2023/08/10 06:02:57;;;;;;;0.00;0.00;;;;;;;21.99;100.00;102140.38;10429946;28;20488;-79
2023/08/10 06:07:59;;;;;;;0.45;0.10;;;;;;;21.99;100.00;102151.75;10440162;28;20106;-79
2023/08/10 06:13:02;;;;;;;0.10;0.10;;;;;;;21.54;100.00;102154.38;10435834;28;20403;-78
2023/08/10 06:18:04;;;;;;;0.90;0.43;;;;;;;21.75;100.00;102157.00;10436045;28;20045;-79
2023/08/10 06:23:05;;;;;;;0.43;0.30;;;;;;;22.60;100.00;102146.34;10435454;28;20053;-79
2023/08/10 06:28:07;;;;;;;0.10;0.10;;;;;;;22.94;100.00;102156.66;10445877;28;20048;-79
2023/08/10 06:33:11;;;;;;;0.00;0.00;;;;;;;22.56;100.00;102158.63;10452321;28;20052;-79
2023/08/10 06:38:13;;;;;;;0.28;0.20;;;;;;;22.79;100.00;102161.13;10437893;28;20451;-79
2023/08/10 06:43:15;;;;;;;0.00;0.00;;;;;;;23.05;100.00;102162.72;10431291;28;20049;-79
2023/08/10 06:48:23;;;;;;;0.10;0.10;;;;;;;23.09;100.00;102159.19;10435387;28;20553;-79
2023/08/10 06:53:26;;;;;;;0.00;0.00;;;;;;;23.81;100.00;102156.00;10448465;28;20056;-79
2023/08/10 06:58:28;;;;;;;0.40;0.20;;;;;;;23.70;100.00;102156.13;10442914;28;20136;-79
2023/08/10 07:03:35;;;;;;;0.10;0.00;;;;;;;23.75;100.00;102164.88;10448299;28;20055;-79
2023/08/10 07:08:36;;;;;;;0.00;0.00;;;;;;;23.84;100.00;102163.91;10446469;28;20049;-79
2023/08/10 07:13:38;;;;;;;0.20;0.20;;;;;;;24.15;100.00;102158.34;10456919;28;20065;-79
2023/08/10 07:18:40;;;;;;;0.63;0.10;;;;;;;24.46;100.00;102160.63;10445860;28;20059;-79
2023/08/10 07:23:41;;;;;;;0.00;0.00;;;;;;;24.31;100.00;102159.03;10430142;28;20041;-79
2023/08/10 07:28:44;;;;;;;0.13;0.13;;;;;;;23.66;100.00;102172.84;10455278;28;20037;-79
2023/08/10 07:33:46;;;;;;;0.13;0.08;;;;;;;24.69;100.00;102166.47;10456070;28;20044;-79
2023/08/10 07:38:48;;;;;;;0.00;0.00;;;;;;;25.42;100.00;102168.09;10454390;28;20049;-79
2023/08/10 07:43:49;;;;;;;0.57;0.57;;;;;;;25.26;100.00;102171.81;10444261;28;20049;-79
2023/08/10 07:48:51;;;;;;;0.00;0.00;;;;;;;24.18;100.00;102163.56;10439547;28;20075;-79
2023/08/10 07:53:53;;;;;;;0.22;0.22;;;;;;;24.96;100.00;102174.91;10437879;28;20040;-79
2023/08/10 07:58:54;;;;;;;1.10;0.30;;;;;;;24.01;100.00;102174.28;10441633;28;20037;-78
2023/08/10 08:03:56;;;;;;;0.10;0.00;;;;;;;24.57;100.00;102171.03;10450253;28;20052;-79
2023/08/10 08:08:58;;;;;;;0.75;0.57;;;;;;;24.28;100.00;102170.47;10439169;28;20494;-79
2023/08/10 08:14:00;;;;;;;0.20;0.03;;;;;;;25.17;100.00;102172.84;10458344;28;20139;-79
2023/08/10 08:19:02;;;;;;;0.10;0.00;;;;;;;25.13;100.00;102165.91;10436751;28;20189;-79
2023/08/10 08:24:04;;;;;;;0.17;0.13;;;;;;;26.09;100.00;102153.75;10482921;28;20063;-79
2023/08/10 08:29:06;;;;;;;0.15;0.13;;;;;;;26.45;100.00;102161.81;10471005;28;20072;-79
2023/08/10 08:34:07;;;;;;;0.10;0.00;;;;;;;25.23;100.00;102177.16;10453962;28;20044;-79
2023/08/10 08:39:10;;;;;;;0.13;0.10;;;;;;;27.79;100.00;102171.06;10437847;28;20041;-79
2023/08/10 08:44:13;;;;;;;1.60;0.25;;;;;;;28.38;100.00;102168.59;10437772;28;20048;-79
2023/08/10 08:49:15;;;;;;;0.00;0.00;;;;;;;28.41;100.00;102164.06;10431459;28;20120;-79
2023/08/10 08:54:18;;;;;;;0.05;0.05;;;;;;;28.84;100.00;102161.09;10431860;28;20052;-79
2023/08/10 08:59:20;;;;;;;0.85;0.43;;;;;;;28.22;100.00;102157.56;10439238;28;20056;-79
2023/08/10 09:04:22;;;;;;;0.00;0.00;;;;;;;28.27;100.00;102153.00;10463918;28;20055;-79
2023/08/10 09:09:25;;;;;;;5.68;0.40;;;;;;;28.63;100.00;102147.56;10419614;28;20052;-79
2023/08/10 09:14:26;;;;;;;0.00;0.00;;;;;;;27.19;100.00;102154.03;10455248;28;20045;-78
2023/08/10 09:19:30;;;;;;;0.20;0.10;;;;;;;27.33;100.00;102143.97;10421169;28;20053;-79
2023/08/10 09:24:33;;;;;;;0.00;0.00;;;;;;;27.35;100.00;102144.81;10439174;28;20510;-79
2023/08/10 09:29:34;;;;;;;0.00;0.00;;;;;;;28.13;100.00;102143.69;10443301;28;20049;-79
2023/08/10 09:34:36;;;;;;;0.20;0.10;;;;;;;28.69;100.00;102136.78;10420926;28;20041;-79
2023/08/10 09:39:38;;;;;;;0.00;0.00;;;;;;;28.01;100.00;102144.00;10463378;28;20041;-79
2023/08/10 09:44:49;;;;;;;0.15;0.10;;;;;;;29.16;100.00;102129.97;10469987;28;20041;-79
2023/08/10 09:50:03;;;;;;;0.08;0.00;;;;;;;29.30;100.00;102135.72;10454831;28;20396;-79
2023/08/10 09:55:06;;;;;;;0.10;0.10;;;;;;;29.01;100.00;102140.16;10432657;28;20079;-79
2023/08/10 10:00:18;;;;;;;0.10;0.10;;;;;;;29.18;100.00;102129.03;10437647;28;20045;-79
2023/08/10 10:05:22;;;;;;;6.13;0.28;;;;;;;29.86;100.00;102147.09;10437438;28;20095;-78
2023/08/10 10:10:37;;;;;;;0.00;0.00;;;;;;;30.07;100.00;102143.66;10468847;28;20045;-79
2023/08/10 10:15:39;;;;;;;0.00;0.00;;;;;;;29.69;100.00;102131.75;10454531;28;20095;-79
2023/08/10 10:20:44;;;;;;;0.00;0.00;;;;;;;29.42;100.00;102137.09;10475989;28;20086;-79
2023/08/10 10:26:00;;;;;;;0.00;0.00;;;;;;;30.29;100.00;102129.56;10439373;28;20123;-79
2023/08/10 10:31:04;;;;;;;3.83;0.40;;;;;;;29.95;100.00;102124.66;10471344;28;20045;-79
2023/08/10 10:36:09;;;;;;;10.95;0.40;;;;;;;30.09;100.00;102132.97;10444689;28;20048;-79
2023/08/10 10:41:32;;;;;;;0.17;0.17;;;;;;;30.50;100.00;102127.00;10444587;28;20135;-79
2023/08/10 10:46:33;;;;;;;0.00;0.00;;;;;;;30.18;98.32;102121.16;10430802;28;20487;-78
2023/08/10 10:51:54;;;;;;;0.00;0.00;;;;;;;29.80;100.00;102126.06;10456389;28;20072;-78
2023/08/10 10:56:57;;;;;;;0.40;0.32;;;;;;;29.95;98.43;102125.53;10440695;28;20040;-78
2023/08/10 11:01:59;;;;;;;0.13;0.13;;;;;;;30.17;99.51;102119.41;10464198;28;20135;-80
2023/08/10 11:07:01;;;;;;;0.10;0.10;;;;;;;31.35;100.00;102122.75;10467160;28;20041;-79
2023/08/10 11:12:03;;;;;;;0.10;0.10;;;;;;;30.05;100.00;102136.69;10442992;28;20052;-78
2023/08/10 11:17:05;;;;;;;0.45;0.10;;;;;;;29.22;95.07;102140.41;10442518;28;20049;-78
2023/08/10 11:22:07;;;;;;;0.00;0.00;;;;;;;31.66;98.08;102129.44;10443232;28;20037;-79
2023/08/10 11:27:09;;;;;;;0.00;0.00;;;;;;;30.41;93.27;102130.91;10454740;28;20048;-79
2023/08/10 11:32:10;;;;;;;0.10;0.10;;;;;;;30.70;93.99;102135.13;10425028;28;20439;-78
2023/08/10 11:37:13;;;;;;;0.55;0.22;;;;;;;30.30;96.15;102126.00;10453990;28;20393;-79
2023/08/10 11:42:14;;;;;;;0.20;0.17;;;;;;;29.48;92.96;102130.72;10450510;28;20144;-78
2023/08/10 11:47:17;;;;;;;0.55;0.20;;;;;;;30.25;98.17;102122.66;10452113;28;20053;-78
2023/08/10 11:52:18;;;;;;;0.00;0.00;;;;;;;30.37;92.82;102116.00;10437798;28;20144;-78
2023/08/10 11:57:20;;;;;;;0.00;0.00;;;;;;;31.37;95.75;102111.09;10441326;28;20044;-78
2023/08/10 12:02:22;;;;;;;0.05;0.03;;;;;;;29.85;98.89;102108.16;10461568;28;20506;-78
2023/08/10 12:07:24;;;;;;;0.55;0.38;;;;;;;30.39;99.81;102111.47;10434345;28;20128;-77
2023/08/10 12:12:26;;;;;;;0.10;0.10;;;;;;;30.69;95.82;102105.91;10424968;28;20120;-78
2023/08/10 12:17:27;;;;;;;0.10;0.10;;;;;;;30.02;96.84;102097.81;10440242;28;20373;-78
2023/08/10 12:22:29;;;;;;;0.43;0.35;;;;;;;30.22;94.07;102096.19;10446583;28;20045;-78
2023/08/10 12:27:31;;;;;;;0.00;0.00;;;;;;;29.73;98.32;102097.06;10439390;28;20063;-78
2023/08/10 12:32:32;;;;;;;0.00;0.00;;;;;;;29.89;98.65;102093.84;10472779;28;20052;-78
2023/08/10 12:37:34;;;;;;;0.03;0.00;;;;;;;29.02;96.84;102099.47;10445327;28;20063;-78
2023/08/10 12:42:36;;;;;;;0.25;0.10;;;;;;;30.41;97.57;102091.00;10439354;28;20161;-79
2023/08/10 12:47:39;;;;;;;0.00;0.00;;;;;;;30.14;100.00;102090.28;10439160;28;20052;-79
2023/08/10 12:52:42;;;;;;;0.47;0.35;;;;;;;28.37;100.00;102103.28;10454681;28;20053;-79
2023/08/10 12:57:44;;;;;;;0.10;0.10;;;;;;;30.07;100.00;102079.91;10438863;28;20041;-79
2023/08/10 13:02:47;;;;;;;0.10;0.10;;;;;;;30.63;100.00;102074.22;10438832;28;20068;-79
2023/08/10 13:07:48;;;;;;;0.00;0.00;;;;;;;30.44;96.00;102076.72;10438580;28;20041;-79
2023/08/10 13:12:51;;;;;;;0.10;0.05;;;;;;;30.80;100.00;102078.84;10408307;28;20136;-79
2023/08/10 13:17:53;;;;;;;0.05;0.03;;;;;;;29.84;97.14;102082.50;10454801;28;20052;-78
2023/08/10 13:22:55;;;;;;;0.00;0.00;;;;;;;29.47;99.95;102086.50;10460900;28;20041;-78
2023/08/10 13:27:57;;;;;;;0.10;0.10;;;;;;;30.62;100.00;102086.69;10437155;28;20056;-79
2023/08/10 13:32:58;;;;;;;0.00;0.00;;;;;;;30.11;100.00;102090.41;10455346;28;20107;-79
2023/08/10 13:38:00;;;;;;;0.98;0.10;;;;;;;30.58;96.43;102098.34;10459357;28;20049;-78
2023/08/10 13:43:02;;;;;;;0.03;0.03;;;;;;;29.97;100.00;102107.75;10437798;28;20045;-79
2023/08/10 13:48:05;;;;;;;0.17;0.13;;;;;;;30.23;100.00;102097.91;10453932;28;20040;-77
2023/08/10 13:53:07;;;;;;;0.35;0.30;;;;;;;30.47;100.00;102096.09;10437970;28;20079;-79
2023/08/10 13:58:09;;;;;;;0.00;0.00;;;;;;;30.79;99.68;102095.78;10437008;28;20052;-79
2023/08/10 14:03:11;;;;;;;0.03;0.00;;;;;;;29.97;100.00;102098.91;10420547;28;20408;-78
2023/08/10 14:08:13;;;;;;;0.10;0.10;;;;;;;30.24;96.85;102094.34;10427677;28;20410;-78
2023/08/10 14:13:14;;;;;;;0.50;0.30;;;;;;;30.62;98.72;102093.78;10476606;28;20103;-79
2023/08/10 14:18:16;;;;;;;0.22;0.22;;;;;;;30.00;96.65;102078.41;10478537;28;20045;-78
2023/08/10 14:23:18;;;;;;;0.17;0.15;;;;;;;30.74;99.45;102076.44;10464614;28;20049;-78
2023/08/10 14:28:20;;;;;;;0.00;0.00;;;;;;;30.72;100.00;102075.69;10445488;28;20045;-79
2023/08/10 14:33:21;;;;;;;0.08;0.05;;;;;;;31.16;100.00;102080.97;10444930;28;20395;-78
2023/08/10 14:38:23;;;;;;;0.00;0.00;;;;;;;30.78;100.00;102086.06;10461346;28;20059;-79
2023/08/10 14:43:42;;;;;;;0.00;0.00;;;;;;;30.84;94.03;102085.81;10447545;28;20119;-79
2023/08/10 14:48:43;;;;;;;0.35;0.35;;;;;;;31.82;100.00;102079.88;10444534;28;20049;-79
2023/08/10 14:53:45;;;;;;;0.40;0.10;;;;;;;32.00;100.00;102075.50;10444244;28;20049;-79
2023/08/10 14:58:47;;;;;;;0.15;0.15;;;;;;;30.27;100.00;102078.25;10446741;28;20131;-78
2023/08/10 15:03:49;;;;;;;0.00;0.00;;;;;;;30.39;99.46;102083.09;10428197;28;20547;-79
2023/08/10 15:08:50;;;;;;;0.10;0.10;;;;;;;30.68;100.00;102077.59;10443774;28;20407;-79
2023/08/10 15:13:52;;;;;;;0.25;0.10;;;;;;;30.81;99.81;102077.94;10426782;28;20041;-78
2023/08/10 15:18:54;;;;;;;0.10;0.10;;;;;;;30.80;100.00;102076.19;10442162;28;20044;-79
2023/08/10 15:23:55;;;;;;;0.47;0.15;;;;;;;29.67;100.00;102067.19;10443215;28;20037;-79
2023/08/10 15:28:57;;;;;;;0.35;0.20;;;;;;;30.23;100.00;102066.03;10460265;28;20032;-79
2023/08/10 15:33:58;;;;;;;0.30;0.17;;;;;;;31.38;100.00;102056.91;10442830;28;20056;-79
2023/08/10 15:39:00;;;;;;;0.88;0.28;;;;;;;30.14;100.00;102053.97;10459212;28;20049;-79
2023/08/10 15:44:02;;;;;;;0.05;0.05;;;;;;;29.70;100.00;102057.34;10475912;28;20049;-78
2023/08/10 15:49:03;;;;;;;0.17;0.10;;;;;;;30.03;99.50;102043.75;10473902;28;20127;-80
2023/08/10 15:54:07;;;;;;;1.95;0.32;;;;;;;29.51;98.19;102043.00;10464670;28;20506;-79
2023/08/10 15:59:09;;;;;;;0.10;0.10;;;;;;;30.27;98.60;102056.97;10483148;28;20396;-79
2023/08/10 16:04:11;;;;;;;0.05;0.05;;;;;;;31.27;98.47;102038.75;10443047;28;20420;-80
2023/08/10 16:09:13;;;;;;;0.40;0.03;;;;;;;30.86;100.00;102042.22;10449097;28;20049;-79
2023/08/10 16:14:14;;;;;;;0.00;0.00;;;;;;;30.63;100.00;102044.97;10443160;28;20053;-79
2023/08/10 16:19:20;;;;;;;0.05;0.05;;;;;;;31.53;100.00;102028.75;10454622;28;20471;-79
2023/08/10 16:24:21;;;;;;;0.30;0.10;;;;;;;31.38;99.38;102030.28;10478164;28;20045;-79
2023/08/10 16:29:23;;;;;;;0.00;0.00;;;;;;;31.54;100.00;102041.13;10451307;28;20124;-79
2023/08/10 16:34:25;;;;;;;0.00;0.00;;;;;;;30.99;100.00;102050.56;10465989;28;20048;-79
2023/08/10 16:39:27;;;;;;;0.00;0.00;;;;;;;30.03;100.00;102049.06;10472014;28;20045;-79
2023/08/10 16:44:28;;;;;;;0.03;0.03;;;;;;;30.66;100.00;102045.72;10458670;28;20563;-79
2023/08/10 16:49:31;;;;;;;0.35;0.25;;;;;;;29.60;100.00;102055.91;10469950;28;20041;-79
2023/08/10 16:54:34;;;;;;;1.25;0.30;;;;;;;29.21;100.00;102049.28;10449122;28;20049;-79
2023/08/10 16:59:35;;;;;;;0.00;0.00;;;;;;;30.47;100.00;102053.53;10463676;28;20040;-79
2023/08/10 17:04:37;;;;;;;0.60;0.32;;;;;;;29.89;100.00;102051.34;10507467;28;20049;-79
2023/08/10 17:09:39;;;;;;;0.47;0.43;;;;;;;29.70;100.00;102054.69;10485752;28;20056;-79
2023/08/10 17:14:40;;;;;;;0.05;0.05;;;;;;;29.65;100.00;102059.31;10462603;28;20523;-79
2023/08/10 17:19:42;;;;;;;0.32;0.20;;;;;;;29.99;100.00;102060.72;10442408;28;20037;-79
2023/08/10 17:24:44;;;;;;;0.10;0.10;;;;;;;30.25;100.00;102066.84;10478772;28;20403;-79
2023/08/10 17:29:51;;;;;;;0.00;0.00;;;;;;;29.87;100.00;102061.16;10440424;28;20135;-79
2023/08/10 17:34:53;;;;;;;0.47;0.20;;;;;;;29.99;100.00;102063.38;10456272;28;20052;-79
2023/08/10 17:39:55;;;;;;;0.03;0.03;;;;;;;30.15;100.00;102060.13;10442070;28;20040;-79
2023/08/10 17:44:58;;;;;;;0.47;0.30;;;;;;;29.87;100.00;102063.81;10475242;28;20049;-79
2023/08/10 17:50:00;;;;;;;0.65;0.43;;;;;;;29.72;100.00;102060.81;10457646;28;20494;-79
2023/08/10 17:55:03;;;;;;;0.00;0.00;;;;;;;30.62;100.00;102057.44;10475304;28;20056;-79
2023/08/10 18:00:12;;;;;;;0.00;0.00;;;;;;;30.32;100.00;102055.03;10449919;28;20051;-79
2023/08/10 18:05:14;;;;;;;0.10;0.10;;;;;;;29.51;100.00;102050.97;10484885;28;20395;-78
2023/08/10 18:10:16;;;;;;;0.10;0.10;;;;;;;28.87;100.00;102046.91;10452985;28;20045;-78
2023/08/10 18:15:18;;;;;;;0.00;0.00;;;;;;;29.27;100.00;102042.91;10472959;28;20049;-79
2023/08/10 18:20:20;;;;;;;0.00;0.00;;;;;;;29.56;100.00;102044.53;10460234;28;20045;-79
2023/08/10 18:25:21;;;;;;;0.40;0.20;;;;;;;29.22;100.00;102050.19;10443906;28;20053;-79
2023/08/10 18:30:23;;;;;;;0.00;0.00;;;;;;;28.99;100.00;102049.19;10487338;28;20045;-79
2023/08/10 18:35:24;;;;;;;0.00;0.00;;;;;;;27.64;100.00;102047.06;10494321;28;20091;-78
2023/08/10 18:40:36;;;;;;;0.00;0.00;;;;;;;28.59;100.00;102051.34;10484984;28;20144;-79
2023/08/10 18:45:38;;;;;;;0.08;0.08;;;;;;;28.62;100.00;102058.31;10468189;28;20067;-79
2023/08/10 18:50:40;;;;;;;0.00;0.00;;;;;;;28.17;100.00;102059.69;10441663;28;20033;-79
2023/08/10 18:55:47;;;;;;;0.00;0.00;;;;;;;27.63;100.00;102054.13;10435881;28;20053;-79
2023/08/10 19:00:54;;;;;;;0.10;0.10;;;;;;;27.87;100.00;102056.97;10446696;28;20107;-79
2023/08/10 19:05:55;;;;;;;0.00;0.00;;;;;;;27.41;100.00;102056.47;10450921;28;20044;-79
2023/08/10 19:10:57;;;;;;;0.00;0.00;;;;;;;27.81;100.00;102065.97;10434356;28;20047;-79
2023/08/10 19:16:03;;;;;;;0.10;0.00;;;;;;;27.27;100.00;102059.47;10444654;28;20052;-79
2023/08/10 19:21:06;;;;;;;0.00;0.00;;;;;;;27.10;100.00;102065.19;10482206;28;20119;-79
2023/08/10 19:26:07;;;;;;;0.00;0.00;;;;;;;26.81;100.00;102071.22;10443964;28;20041;-79
2023/08/10 19:31:09;;;;;;;0.17;0.17;;;;;;;26.62;100.00;102078.69;10443095;28;20476;-79
2023/08/10 19:36:11;;;;;;;0.22;0.20;;;;;;;25.79;100.00;102079.50;10457692;28;20071;-79
2023/08/10 19:41:13;;;;;;;0.00;0.00;;;;;;;26.08;100.00;102092.13;10470856;28;20403;-79
2023/08/10 19:46:14;;;;;;;0.00;0.00;;;;;;;26.37;100.00;102089.78;10434005;28;20045;-79
2023/08/10 19:51:16;;;;;;;0.10;0.10;;;;;;;25.97;100.00;102092.31;10442792;28;20088;-78
2023/08/10 19:56:18;;;;;;;0.13;0.13;;;;;;;25.45;100.00;102086.25;10442809;28;20049;-78
2023/08/10 20:01:20;;;;;;;0.10;0.10;;;;;;;25.52;100.00;102100.19;10475245;28;20052;-78
2023/08/10 20:06:22;;;;;;;0.00;0.00;;;;;;;25.69;100.00;102085.84;10457949;28;20053;-78
2023/08/10 20:11:24;;;;;;;0.00;0.00;;;;;;;25.52;100.00;102094.06;10442001;28;20399;-78
2023/08/10 20:16:26;;;;;;;0.13;0.13;;;;;;;25.49;100.00;102105.56;10459421;28;20095;-78
2023/08/10 20:21:27;;;;;;;0.17;0.17;;;;;;;25.01;100.00;102109.81;10441227;28;20127;-78
2023/08/10 20:26:30;;;;;;;0.30;0.30;;;;;;;24.54;100.00;102117.47;10440859;28;20506;-79
2023/08/10 20:31:31;;;;;;;0.00;0.00;;;;;;;25.05;100.00;102109.78;10440715;28;20045;-79
2023/08/10 20:36:33;;;;;;;0.00;0.00;;;;;;;25.00;100.00;102109.84;10440708;28;20496;-78
2023/08/10 20:41:35;;;;;;;0.22;0.22;;;;;;;24.71;100.00;102106.72;10440523;28;20048;-78
2023/08/10 20:46:36;;;;;;;0.20;0.10;;;;;;;24.63;100.00;102092.75;10439908;28;20049;-79
2023/08/10 20:51:38;;;;;;;0.17;0.13;;;;;;;24.68;100.00;102096.25;10456226;28;20048;-78
2023/08/10 20:56:39;;;;;;;0.00;0.00;;;;;;;24.58;100.00;102098.97;10439954;28;20056;-78
2023/08/10 21:01:41;;;;;;;0.10;0.10;;;;;;;24.21;100.00;102101.22;10439470;28;20053;-78
2023/08/10 21:06:43;;;;;;;0.00;0.00;;;;;;;24.07;100.00;102114.56;10488291;28;20437;-78
2023/08/10 21:11:44;;;;;;;0.10;0.10;;;;;;;24.31;100.00;102111.63;10454266;28;20406;-78
2023/08/10 21:16:46;;;;;;;0.10;0.10;;;;;;;24.32;100.00;102106.34;10471459;28;20047;-78
2023/08/10 21:21:48;;;;;;;0.25;0.08;;;;;;;24.18;100.00;102105.63;10454391;28;20045;-78
2023/08/10 21:26:49;;;;;;;0.00;0.00;;;;;;;24.37;100.00;102107.19;10459819;28;20045;-78
2023/08/10 21:31:51;;;;;;;0.03;0.03;;;;;;;23.90;100.00;102111.19;10438264;28;20132;-78
2023/08/10 21:36:53;;;;;;;0.45;0.08;;;;;;;23.82;100.00;102113.03;10454759;28;20051;-78
2023/08/10 21:41:56;;;;;;;0.00;0.00;;;;;;;23.40;100.00;102127.47;10422345;28;20048;-79
2023/08/10 21:46:58;;;;;;;0.00;0.00;;;;;;;23.82;100.00;102113.03;10437752;28;20053;-78
2023/08/10 21:52:00;;;;;;;0.15;0.05;;;;;;;23.64;100.00;102119.34;10423213;28;20029;-78
2023/08/10 21:57:02;;;;;;;0.00;0.00;;;;;;;23.40;100.00;102116.94;10470619;28;20605;-78
2023/08/10 22:02:04;;;;;;;0.20;0.20;;;;;;;23.43;100.00;102106.38;10455231;28;20041;-78
2023/08/10 22:07:05;;;;;;;0.28;0.10;;;;;;;23.82;100.00;102097.25;10437456;28;20537;-78
2023/08/10 22:12:09;;;;;;;0.00;0.00;;;;;;;23.90;100.00;102106.78;10437453;28;20051;-78
2023/08/10 22:17:11;;;;;;;0.40;0.20;;;;;;;23.87;100.00;102100.69;10436767;28;20057;-78
2023/08/10 22:22:12;;;;;;;0.32;0.20;;;;;;;23.61;100.00;102104.47;10436548;28;20144;-78
2023/08/10 22:27:14;;;;;;;0.00;0.00;;;;;;;23.47;100.00;102103.72;10473918;28;20099;-78
2023/08/10 22:32:16;;;;;;;0.00;0.00;;;;;;;23.09;100.00;102097.84;10444286;28;20043;-78
2023/08/10 22:37:17;;;;;;;0.55;0.10;;;;;;;23.26;100.00;102093.38;10482710;28;20067;-78
2023/08/10 22:42:19;;;;;;;0.20;0.20;;;;;;;23.14;100.00;102090.81;10444337;28;20045;-78
2023/08/10 22:47:21;;;;;;;0.00;0.00;;;;;;;23.41;100.00;102087.13;10434271;28;20045;-78
2023/08/10 22:52:22;;;;;;;0.00;0.00;;;;;;;23.56;100.00;102086.09;10451699;28;20053;-78
2023/08/10 22:57:24;;;;;;;0.68;0.55;;;;;;;23.36;100.00;102088.91;10443013;28;20486;-78